sensor_id;sensor_type;location;lat;lon;timestamp;P1;durP1;ratioP1;P2;durP2;ratioP2
74241;SDS011;62599;49.146;10.426;2022-09-01T00:00:58;11.25;;;7.50;;
74241;SDS011;62599;49.146;10.426;2022-09-01T00:03:23;11.40;;;7.33;;
74241;SDS011;62599;49.146;10.426;2022-09-01T00:05:50;10.95;;;7.88;;
74241;SDS011;62599;49.146;10.426;2022-09-01T00:08:19;12.18;;;7.97;;
74241;SDS011;62599;49.146;10.426;2022-09-01T00:10:44;11.57;;;7.32;;
74241;SDS011;62599;49.146;10.426;2022-09-01T00:13:10;12.10;;;8.25;;
74241;SDS011;62599;49.146;10.426;2022-09-01T00:15:35;12.37;;;7.83;;
74241;SDS011;62599;49.146;10.426;2022-09-01T00:18:01;12.20;;;7.22;;
74241;SDS011;62599;49.146;10.426;2022-09-01T00:20:26;10.32;;;6.90;;
74241;SDS011;62599;49.146;10.426;2022-09-01T00:22:52;10.15;;;7.25;;
74241;SDS011;62599;49.146;10.426;2022-09-01T00:25:17;11.10;;;7.43;;
74241;SDS011;62599;49.146;10.426;2022-09-01T00:27:44;11.63;;;7.55;;
74241;SDS011;62599;49.146;10.426;2022-09-01T00:30:09;11.20;;;7.27;;
74241;SDS011;62599;49.146;10.426;2022-09-01T00:32:34;12.38;;;7.70;;
74241;SDS011;62599;49.146;10.426;2022-09-01T00:34:59;12.97;;;8.20;;
74241;SDS011;62599;49.146;10.426;2022-09-01T00:37:25;14.10;;;8.00;;
74241;SDS011;62599;49.146;10.426;2022-09-01T00:39:50;12.63;;;7.93;;
74241;SDS011;62599;49.146;10.426;2022-09-01T00:42:15;12.40;;;7.00;;
74241;SDS011;62599;49.146;10.426;2022-09-01T00:44:41;13.90;;;7.50;;
74241;SDS011;62599;49.146;10.426;2022-09-01T00:47:06;15.33;;;9.07;;
74241;SDS011;62599;49.146;10.426;2022-09-01T00:52:01;11.77;;;7.15;;
74241;SDS011;62599;49.146;10.426;2022-09-01T00:54:29;10.57;;;7.05;;
74241;SDS011;62599;49.146;10.426;2022-09-01T00:56:55;11.50;;;7.32;;
74241;SDS011;62599;49.146;10.426;2022-09-01T00:59:21;11.80;;;7.37;;
74241;SDS011;62599;49.146;10.426;2022-09-01T01:01:47;12.73;;;7.35;;
74241;SDS011;62599;49.146;10.426;2022-09-01T01:04:12;11.00;;;7.40;;
74241;SDS011;62599;49.146;10.426;2022-09-01T01:06:41;11.63;;;7.97;;
74241;SDS011;62599;49.146;10.426;2022-09-01T01:09:07;15.52;;;7.72;;
74241;SDS011;62599;49.146;10.426;2022-09-01T01:11:33;13.15;;;8.18;;
74241;SDS011;62599;49.146;10.426;2022-09-01T01:14:03;14.05;;;8.95;;
74241;SDS011;62599;49.146;10.426;2022-09-01T01:16:40;12.32;;;8.85;;
74241;SDS011;62599;49.146;10.426;2022-09-01T01:19:08;11.85;;;8.23;;
74241;SDS011;62599;49.146;10.426;2022-09-01T01:21:55;11.82;;;8.05;;
74241;SDS011;62599;49.146;10.426;2022-09-01T01:24:39;11.95;;;7.25;;
74241;SDS011;62599;49.146;10.426;2022-09-01T01:27:04;11.33;;;7.37;;
74241;SDS011;62599;49.146;10.426;2022-09-01T01:29:31;11.93;;;7.47;;
74241;SDS011;62599;49.146;10.426;2022-09-01T01:31:57;12.57;;;8.05;;
74241;SDS011;62599;49.146;10.426;2022-09-01T01:34:22;12.05;;;8.38;;
74241;SDS011;62599;49.146;10.426;2022-09-01T01:36:48;13.07;;;7.80;;
74241;SDS011;62599;49.146;10.426;2022-09-01T01:39:16;13.32;;;8.10;;
74241;SDS011;62599;49.146;10.426;2022-09-01T01:41:42;12.65;;;7.90;;
74241;SDS011;62599;49.146;10.426;2022-09-01T01:44:09;12.57;;;7.72;;
74241;SDS011;62599;49.146;10.426;2022-09-01T01:46:38;11.27;;;8.20;;
74241;SDS011;62599;49.146;10.426;2022-09-01T01:49:06;13.98;;;8.32;;
74241;SDS011;62599;49.146;10.426;2022-09-01T01:51:31;13.10;;;7.63;;
74241;SDS011;62599;49.146;10.426;2022-09-01T01:53:57;11.52;;;7.82;;
74241;SDS011;62599;49.146;10.426;2022-09-01T01:56:25;12.25;;;7.97;;
74241;SDS011;62599;49.146;10.426;2022-09-01T01:58:52;12.40;;;8.20;;
74241;SDS011;62599;49.146;10.426;2022-09-01T02:01:21;14.77;;;9.00;;
74241;SDS011;62599;49.146;10.426;2022-09-01T02:03:48;12.10;;;7.82;;
74241;SDS011;62599;49.146;10.426;2022-09-01T02:06:17;12.70;;;8.00;;
74241;SDS011;62599;49.146;10.426;2022-09-01T02:08:46;12.90;;;7.50;;
74241;SDS011;62599;49.146;10.426;2022-09-01T02:11:12;14.77;;;8.17;;
74241;SDS011;62599;49.146;10.426;2022-09-01T02:13:37;13.85;;;8.80;;
74241;SDS011;62599;49.146;10.426;2022-09-01T02:16:04;12.43;;;7.65;;
74241;SDS011;62599;49.146;10.426;2022-09-01T02:18:35;13.07;;;7.30;;
74241;SDS011;62599;49.146;10.426;2022-09-01T02:21:02;18.48;;;8.80;;
74241;SDS011;62599;49.146;10.426;2022-09-01T02:23:31;11.85;;;7.28;;
74241;SDS011;62599;49.146;10.426;2022-09-01T02:25:57;13.55;;;8.27;;
74241;SDS011;62599;49.146;10.426;2022-09-01T02:28:26;10.45;;;7.53;;
74241;SDS011;62599;49.146;10.426;2022-09-01T02:30:52;12.90;;;7.57;;
74241;SDS011;62599;49.146;10.426;2022-09-01T02:33:19;13.57;;;7.93;;
74241;SDS011;62599;49.146;10.426;2022-09-01T02:35:46;14.30;;;7.50;;
74241;SDS011;62599;49.146;10.426;2022-09-01T02:38:11;12.27;;;7.50;;
74241;SDS011;62599;49.146;10.426;2022-09-01T02:40:38;11.95;;;7.32;;
74241;SDS011;62599;49.146;10.426;2022-09-01T02:43:04;10.85;;;7.32;;
74241;SDS011;62599;49.146;10.426;2022-09-01T02:45:29;12.70;;;7.35;;
74241;SDS011;62599;49.146;10.426;2022-09-01T02:47:56;13.07;;;8.57;;
74241;SDS011;62599;49.146;10.426;2022-09-01T02:50:22;12.37;;;7.50;;
74241;SDS011;62599;49.146;10.426;2022-09-01T02:52:48;12.52;;;7.78;;
74241;SDS011;62599;49.146;10.426;2022-09-01T02:55:16;12.65;;;8.45;;
74241;SDS011;62599;49.146;10.426;2022-09-01T02:57:45;11.30;;;7.05;;
74241;SDS011;62599;49.146;10.426;2022-09-01T03:00:11;10.43;;;7.20;;
74241;SDS011;62599;49.146;10.426;2022-09-01T03:02:46;13.15;;;8.00;;
74241;SDS011;62599;49.146;10.426;2022-09-01T03:05:11;11.38;;;7.65;;
74241;SDS011;62599;49.146;10.426;2022-09-01T03:07:39;12.63;;;8.00;;
74241;SDS011;62599;49.146;10.426;2022-09-01T03:10:06;14.43;;;9.25;;
74241;SDS011;62599;49.146;10.426;2022-09-01T03:12:33;13.60;;;8.43;;
74241;SDS011;62599;49.146;10.426;2022-09-01T03:14:58;14.57;;;8.43;;
74241;SDS011;62599;49.146;10.426;2022-09-01T03:17:24;12.87;;;8.77;;
74241;SDS011;62599;49.146;10.426;2022-09-01T03:19:49;17.97;;;10.43;;
74241;SDS011;62599;49.146;10.426;2022-09-01T03:22:15;14.40;;;9.05;;
74241;SDS011;62599;49.146;10.426;2022-09-01T03:24:41;15.53;;;9.47;;
74241;SDS011;62599;49.146;10.426;2022-09-01T03:27:06;16.43;;;10.17;;
74241;SDS011;62599;49.146;10.426;2022-09-01T03:29:31;19.08;;;10.82;;
74241;SDS011;62599;49.146;10.426;2022-09-01T03:31:57;16.50;;;9.53;;
74241;SDS011;62599;49.146;10.426;2022-09-01T03:34:22;16.67;;;10.47;;
74241;SDS011;62599;49.146;10.426;2022-09-01T03:36:48;14.05;;;9.65;;
74241;SDS011;62599;49.146;10.426;2022-09-01T03:39:18;18.58;;;10.48;;
74241;SDS011;62599;49.146;10.426;2022-09-01T03:41:43;15.18;;;9.23;;
74241;SDS011;62599;49.146;10.426;2022-09-01T03:44:09;14.47;;;9.10;;
74241;SDS011;62599;49.146;10.426;2022-09-01T03:46:36;16.30;;;9.38;;
74241;SDS011;62599;49.146;10.426;2022-09-01T03:49:02;14.32;;;9.52;;
74241;SDS011;62599;49.146;10.426;2022-09-01T03:51:30;15.00;;;8.90;;
74241;SDS011;62599;49.146;10.426;2022-09-01T03:53:56;14.97;;;9.43;;
74241;SDS011;62599;49.146;10.426;2022-09-01T03:56:22;15.55;;;9.05;;
74241;SDS011;62599;49.146;10.426;2022-09-01T03:58:49;15.00;;;9.77;;
74241;SDS011;62599;49.146;10.426;2022-09-01T04:01:16;14.13;;;9.25;;
74241;SDS011;62599;49.146;10.426;2022-09-01T04:03:42;12.77;;;7.57;;
74241;SDS011;62599;49.146;10.426;2022-09-01T04:06:11;11.98;;;7.45;;
74241;SDS011;62599;49.146;10.426;2022-09-01T04:08:37;18.65;;;8.30;;
74241;SDS011;62599;49.146;10.426;2022-09-01T04:11:08;13.43;;;8.38;;
74241;SDS011;62599;49.146;10.426;2022-09-01T04:13:35;12.95;;;8.73;;
74241;SDS011;62599;49.146;10.426;2022-09-01T04:16:02;11.13;;;7.28;;
74241;SDS011;62599;49.146;10.426;2022-09-01T04:18:34;12.90;;;7.60;;
74241;SDS011;62599;49.146;10.426;2022-09-01T04:20:59;13.68;;;7.65;;
74241;SDS011;62599;49.146;10.426;2022-09-01T04:23:27;12.27;;;7.90;;
74241;SDS011;62599;49.146;10.426;2022-09-01T04:26:04;13.30;;;8.30;;
74241;SDS011;62599;49.146;10.426;2022-09-01T04:28:34;13.02;;;7.90;;
74241;SDS011;62599;49.146;10.426;2022-09-01T04:31:02;12.60;;;8.27;;
74241;SDS011;62599;49.146;10.426;2022-09-01T04:33:30;10.05;;;6.97;;
74241;SDS011;62599;49.146;10.426;2022-09-01T04:36:01;13.13;;;8.13;;
74241;SDS011;62599;49.146;10.426;2022-09-01T04:38:27;13.55;;;8.50;;
74241;SDS011;62599;49.146;10.426;2022-09-01T04:40:53;16.90;;;8.40;;
74241;SDS011;62599;49.146;10.426;2022-09-01T04:43:21;15.40;;;7.88;;
74241;SDS011;62599;49.146;10.426;2022-09-01T04:45:47;13.23;;;8.07;;
74241;SDS011;62599;49.146;10.426;2022-09-01T04:48:15;13.68;;;8.02;;
74241;SDS011;62599;49.146;10.426;2022-09-01T04:50:41;12.55;;;8.45;;
74241;SDS011;62599;49.146;10.426;2022-09-01T04:53:06;13.67;;;8.83;;
74241;SDS011;62599;49.146;10.426;2022-09-01T04:55:36;14.38;;;8.77;;
74241;SDS011;62599;49.146;10.426;2022-09-01T04:58:02;13.55;;;7.93;;
74241;SDS011;62599;49.146;10.426;2022-09-01T05:00:29;14.88;;;9.23;;
74241;SDS011;62599;49.146;10.426;2022-09-01T05:03:00;18.13;;;8.48;;
74241;SDS011;62599;49.146;10.426;2022-09-01T05:05:34;11.80;;;7.50;;
74241;SDS011;62599;49.146;10.426;2022-09-01T05:08:03;13.90;;;9.15;;
74241;SDS011;62599;49.146;10.426;2022-09-01T05:10:31;14.05;;;9.00;;
74241;SDS011;62599;49.146;10.426;2022-09-01T05:12:58;12.57;;;8.10;;
74241;SDS011;62599;49.146;10.426;2022-09-01T05:15:24;14.13;;;9.60;;
74241;SDS011;62599;49.146;10.426;2022-09-01T05:17:49;14.33;;;8.67;;
74241;SDS011;62599;49.146;10.426;2022-09-01T05:20:16;13.95;;;8.43;;
74241;SDS011;62599;49.146;10.426;2022-09-01T05:22:44;12.65;;;8.38;;
74241;SDS011;62599;49.146;10.426;2022-09-01T05:25:10;13.30;;;8.40;;
74241;SDS011;62599;49.146;10.426;2022-09-01T05:27:38;14.85;;;8.82;;
74241;SDS011;62599;49.146;10.426;2022-09-01T05:30:05;13.02;;;8.73;;
74241;SDS011;62599;49.146;10.426;2022-09-01T05:32:32;14.10;;;8.35;;
74241;SDS011;62599;49.146;10.426;2022-09-01T05:34:58;12.13;;;8.27;;
74241;SDS011;62599;49.146;10.426;2022-09-01T05:37:23;10.55;;;7.45;;
74241;SDS011;62599;49.146;10.426;2022-09-01T05:39:52;13.68;;;7.68;;
74241;SDS011;62599;49.146;10.426;2022-09-01T05:42:18;10.57;;;7.37;;
74241;SDS011;62599;49.146;10.426;2022-09-01T05:44:43;12.17;;;7.50;;
74241;SDS011;62599;49.146;10.426;2022-09-01T05:47:08;12.50;;;7.25;;
74241;SDS011;62599;49.146;10.426;2022-09-01T05:49:36;12.88;;;7.38;;
74241;SDS011;62599;49.146;10.426;2022-09-01T05:52:03;11.90;;;8.15;;
74241;SDS011;62599;49.146;10.426;2022-09-01T05:54:29;14.18;;;8.20;;
74241;SDS011;62599;49.146;10.426;2022-09-01T05:56:55;11.90;;;8.48;;
74241;SDS011;62599;49.146;10.426;2022-09-01T05:59:22;10.20;;;7.53;;
74241;SDS011;62599;49.146;10.426;2022-09-01T06:01:48;13.90;;;7.57;;
74241;SDS011;62599;49.146;10.426;2022-09-01T06:04:13;10.70;;;7.23;;
74241;SDS011;62599;49.146;10.426;2022-09-01T06:06:40;10.30;;;6.30;;
74241;SDS011;62599;49.146;10.426;2022-09-01T06:09:08;10.63;;;7.28;;
74241;SDS011;62599;49.146;10.426;2022-09-01T06:11:34;10.18;;;7.68;;
74241;SDS011;62599;49.146;10.426;2022-09-01T06:14:00;10.70;;;6.88;;
74241;SDS011;62599;49.146;10.426;2022-09-01T06:16:27;9.55;;;6.32;;
74241;SDS011;62599;49.146;10.426;2022-09-01T06:18:53;9.50;;;6.25;;
74241;SDS011;62599;49.146;10.426;2022-09-01T06:21:19;8.50;;;5.97;;
74241;SDS011;62599;49.146;10.426;2022-09-01T06:23:46;8.95;;;6.22;;
74241;SDS011;62599;49.146;10.426;2022-09-01T06:26:22;9.98;;;6.40;;
74241;SDS011;62599;49.146;10.426;2022-09-01T06:28:51;11.43;;;7.15;;
74241;SDS011;62599;49.146;10.426;2022-09-01T06:31:19;8.57;;;6.28;;
74241;SDS011;62599;49.146;10.426;2022-09-01T06:33:47;8.73;;;5.80;;
74241;SDS011;62599;49.146;10.426;2022-09-01T06:36:15;8.20;;;5.97;;
74241;SDS011;62599;49.146;10.426;2022-09-01T06:38:41;7.72;;;5.63;;
74241;SDS011;62599;49.146;10.426;2022-09-01T06:41:07;10.60;;;8.57;;
74241;SDS011;62599;49.146;10.426;2022-09-01T06:43:37;9.50;;;6.13;;
74241;SDS011;62599;49.146;10.426;2022-09-01T06:46:04;10.10;;;5.93;;
74241;SDS011;62599;49.146;10.426;2022-09-01T06:48:29;8.87;;;6.30;;
74241;SDS011;62599;49.146;10.426;2022-09-01T06:50:57;11.38;;;5.97;;
74241;SDS011;62599;49.146;10.426;2022-09-01T06:53:23;9.35;;;6.20;;
74241;SDS011;62599;49.146;10.426;2022-09-01T06:55:51;8.73;;;6.13;;
74241;SDS011;62599;49.146;10.426;2022-09-01T06:58:17;7.43;;;5.30;;
74241;SDS011;62599;49.146;10.426;2022-09-01T07:00:42;7.50;;;5.50;;
74241;SDS011;62599;49.146;10.426;2022-09-01T07:03:08;8.75;;;5.75;;
74241;SDS011;62599;49.146;10.426;2022-09-01T07:05:42;8.77;;;6.25;;
74241;SDS011;62599;49.146;10.426;2022-09-01T07:08:09;10.05;;;5.32;;
74241;SDS011;62599;49.146;10.426;2022-09-01T07:10:41;8.43;;;5.75;;
74241;SDS011;62599;49.146;10.426;2022-09-01T07:13:09;7.18;;;4.53;;
74241;SDS011;62599;49.146;10.426;2022-09-01T07:15:38;7.57;;;4.72;;
74241;SDS011;62599;49.146;10.426;2022-09-01T07:18:03;8.45;;;5.13;;
74241;SDS011;62599;49.146;10.426;2022-09-01T07:20:29;7.05;;;5.32;;
74241;SDS011;62599;49.146;10.426;2022-09-01T07:23:03;7.18;;;4.97;;
74241;SDS011;62599;49.146;10.426;2022-09-01T07:25:29;6.50;;;4.70;;
74241;SDS011;62599;49.146;10.426;2022-09-01T07:27:56;6.50;;;5.03;;
74241;SDS011;62599;49.146;10.426;2022-09-01T07:30:22;8.10;;;5.33;;
74241;SDS011;62599;49.146;10.426;2022-09-01T07:32:47;6.03;;;4.75;;
74241;SDS011;62599;49.146;10.426;2022-09-01T07:35:15;7.10;;;5.55;;
74241;SDS011;62599;49.146;10.426;2022-09-01T07:37:42;8.15;;;5.35;;
74241;SDS011;62599;49.146;10.426;2022-09-01T07:40:09;7.23;;;5.30;;
74241;SDS011;62599;49.146;10.426;2022-09-01T07:42:35;10.75;;;5.85;;
74241;SDS011;62599;49.146;10.426;2022-09-01T07:45:02;7.35;;;5.28;;
74241;SDS011;62599;49.146;10.426;2022-09-01T07:47:32;6.50;;;4.90;;
74241;SDS011;62599;49.146;10.426;2022-09-01T07:50:01;7.75;;;5.82;;
74241;SDS011;62599;49.146;10.426;2022-09-01T07:52:29;7.15;;;5.20;;
74241;SDS011;62599;49.146;10.426;2022-09-01T07:54:55;6.18;;;4.72;;
74241;SDS011;62599;49.146;10.426;2022-09-01T07:57:20;5.20;;;3.87;;
74241;SDS011;62599;49.146;10.426;2022-09-01T07:59:46;6.97;;;4.30;;
74241;SDS011;62599;49.146;10.426;2022-09-01T08:02:14;5.40;;;4.07;;
74241;SDS011;62599;49.146;10.426;2022-09-01T08:04:42;5.32;;;3.63;;
74241;SDS011;62599;49.146;10.426;2022-09-01T08:07:08;6.57;;;3.97;;
74241;SDS011;62599;49.146;10.426;2022-09-01T08:09:35;8.35;;;4.13;;
74241;SDS011;62599;49.146;10.426;2022-09-01T08:12:00;6.22;;;4.15;;
74241;SDS011;62599;49.146;10.426;2022-09-01T08:14:26;7.57;;;4.60;;
74241;SDS011;62599;49.146;10.426;2022-09-01T08:16:51;9.20;;;4.90;;
74241;SDS011;62599;49.146;10.426;2022-09-01T08:19:16;6.63;;;5.00;;
74241;SDS011;62599;49.146;10.426;2022-09-01T08:21:42;6.32;;;5.07;;
74241;SDS011;62599;49.146;10.426;2022-09-01T08:24:07;6.37;;;5.13;;
74241;SDS011;62599;49.146;10.426;2022-09-01T08:26:33;5.87;;;4.33;;
74241;SDS011;62599;49.146;10.426;2022-09-01T08:28:58;6.47;;;4.63;;
74241;SDS011;62599;49.146;10.426;2022-09-01T08:31:23;7.33;;;5.03;;
74241;SDS011;62599;49.146;10.426;2022-09-01T08:33:49;6.57;;;4.60;;
74241;SDS011;62599;49.146;10.426;2022-09-01T08:36:15;6.25;;;4.47;;
74241;SDS011;62599;49.146;10.426;2022-09-01T08:38:41;5.78;;;4.50;;
74241;SDS011;62599;49.146;10.426;2022-09-01T08:46:17;5.00;;;4.13;;
74241;SDS011;62599;49.146;10.426;2022-09-01T08:48:48;8.20;;;4.65;;
74241;SDS011;62599;49.146;10.426;2022-09-01T08:53:42;5.30;;;3.70;;
74241;SDS011;62599;49.146;10.426;2022-09-01T08:56:09;5.05;;;3.33;;
74241;SDS011;62599;49.146;10.426;2022-09-01T08:58:35;4.67;;;3.37;;
74241;SDS011;62599;49.146;10.426;2022-09-01T09:01:02;4.63;;;3.27;;
74241;SDS011;62599;49.146;10.426;2022-09-01T09:06:14;5.20;;;4.28;;
74241;SDS011;62599;49.146;10.426;2022-09-01T09:18:43;8.07;;;4.67;;
74241;SDS011;62599;49.146;10.426;2022-09-01T09:21:13;6.50;;;4.88;;
74241;SDS011;62599;49.146;10.426;2022-09-01T09:23:40;5.00;;;4.50;;
74241;SDS011;62599;49.146;10.426;2022-09-01T09:26:06;5.45;;;4.07;;
74241;SDS011;62599;49.146;10.426;2022-09-01T09:28:31;5.10;;;3.10;;
74241;SDS011;62599;49.146;10.426;2022-09-01T09:33:40;4.68;;;4.25;;
74241;SDS011;62599;49.146;10.426;2022-09-01T09:36:22;4.50;;;4.10;;
74241;SDS011;62599;49.146;10.426;2022-09-01T09:39:04;4.43;;;4.03;;
74241;SDS011;62599;49.146;10.426;2022-09-01T09:41:30;4.65;;;3.22;;
74241;SDS011;62599;49.146;10.426;2022-09-01T09:44:03;4.63;;;4.22;;
74241;SDS011;62599;49.146;10.426;2022-09-01T09:46:36;4.53;;;4.13;;
74241;SDS011;62599;49.146;10.426;2022-09-01T09:49:06;6.57;;;4.47;;
74241;SDS011;62599;49.146;10.426;2022-09-01T09:51:32;5.68;;;4.28;;
74241;SDS011;62599;49.146;10.426;2022-09-01T09:54:10;3.60;;;3.25;;
74241;SDS011;62599;49.146;10.426;2022-09-01T09:56:37;5.03;;;3.63;;
74241;SDS011;62599;49.146;10.426;2022-09-01T09:59:02;8.50;;;3.40;;
74241;SDS011;62599;49.146;10.426;2022-09-01T10:01:40;3.83;;;3.50;;
74241;SDS011;62599;49.146;10.426;2022-09-01T10:04:06;3.70;;;3.40;;
74241;SDS011;62599;49.146;10.426;2022-09-01T10:08:57;4.17;;;3.60;;
74241;SDS011;62599;49.146;10.426;2022-09-01T10:11:30;4.93;;;4.53;;
74241;SDS011;62599;49.146;10.426;2022-09-01T10:13:57;4.05;;;3.65;;
74241;SDS011;62599;49.146;10.426;2022-09-01T10:16:24;3.10;;;2.80;;
74241;SDS011;62599;49.146;10.426;2022-09-01T10:18:50;4.63;;;4.22;;
74241;SDS011;62599;49.146;10.426;2022-09-01T10:21:21;4.60;;;4.18;;
74241;SDS011;62599;49.146;10.426;2022-09-01T10:23:49;4.90;;;3.22;;
74241;SDS011;62599;49.146;10.426;2022-09-01T10:26:19;3.50;;;2.73;;
74241;SDS011;62599;49.146;10.426;2022-09-01T10:31:17;3.10;;;2.80;;
74241;SDS011;62599;49.146;10.426;2022-09-01T10:33:42;3.92;;;3.47;;
74241;SDS011;62599;49.146;10.426;2022-09-01T10:36:08;3.65;;;3.05;;
74241;SDS011;62599;49.146;10.426;2022-09-01T10:38:33;4.57;;;3.28;;
74241;SDS011;62599;49.146;10.426;2022-09-01T10:40:59;4.75;;;4.22;;
74241;SDS011;62599;49.146;10.426;2022-09-01T10:43:35;4.43;;;3.28;;
74241;SDS011;62599;49.146;10.426;2022-09-01T10:46:28;4.43;;;2.92;;
74241;SDS011;62599;49.146;10.426;2022-09-01T10:48:48;4.80;;;4.22;;
74241;SDS011;62599;49.146;10.426;2022-09-01T11:04:07;5.10;;;3.47;;
74241;SDS011;62599;49.146;10.426;2022-09-01T11:09:27;3.63;;;3.10;;
74241;SDS011;62599;49.146;10.426;2022-09-01T11:12:11;5.80;;;3.22;;
74241;SDS011;62599;49.146;10.426;2022-09-01T11:14:48;4.85;;;4.18;;
74241;SDS011;62599;49.146;10.426;2022-09-01T11:17:16;4.05;;;3.10;;
74241;SDS011;62599;49.146;10.426;2022-09-01T11:27:09;4.97;;;4.57;;
74241;SDS011;62599;49.146;10.426;2022-09-01T11:32:15;6.85;;;4.32;;
74241;SDS011;62599;49.146;10.426;2022-09-01T11:34:41;5.40;;;4.83;;
74241;SDS011;62599;49.146;10.426;2022-09-01T11:37:11;5.88;;;2.90;;
74241;SDS011;62599;49.146;10.426;2022-09-01T11:39:40;5.20;;;3.95;;
74241;SDS011;62599;49.146;10.426;2022-09-01T11:47:07;4.18;;;3.88;;
74241;SDS011;62599;49.146;10.426;2022-09-01T11:49:35;5.93;;;5.00;;
74241;SDS011;62599;49.146;10.426;2022-09-01T11:52:01;4.18;;;3.88;;
74241;SDS011;62599;49.146;10.426;2022-09-01T11:54:27;5.15;;;4.45;;
74241;SDS011;62599;49.146;10.426;2022-09-01T11:56:53;4.95;;;4.55;;
74241;SDS011;62599;49.146;10.426;2022-09-01T11:59:34;6.90;;;4.00;;
74241;SDS011;62599;49.146;10.426;2022-09-01T12:02:00;3.47;;;3.17;;
74241;SDS011;62599;49.146;10.426;2022-09-01T12:04:32;6.85;;;3.22;;
74241;SDS011;62599;49.146;10.426;2022-09-01T12:07:07;4.65;;;4.10;;
74241;SDS011;62599;49.146;10.426;2022-09-01T12:09:41;3.08;;;2.72;;
74241;SDS011;62599;49.146;10.426;2022-09-01T12:12:25;5.78;;;3.78;;
74241;SDS011;62599;49.146;10.426;2022-09-01T12:17:18;3.75;;;3.42;;
74241;SDS011;62599;49.146;10.426;2022-09-01T12:19:44;5.03;;;4.35;;
74241;SDS011;62599;49.146;10.426;2022-09-01T12:22:13;3.80;;;3.20;;
74241;SDS011;62599;49.146;10.426;2022-09-01T12:24:42;3.25;;;2.95;;
74241;SDS011;62599;49.146;10.426;2022-09-01T12:27:08;4.93;;;2.60;;
74241;SDS011;62599;49.146;10.426;2022-09-01T12:29:34;3.35;;;2.75;;
74241;SDS011;62599;49.146;10.426;2022-09-01T12:32:01;7.13;;;2.88;;
74241;SDS011;62599;49.146;10.426;2022-09-01T12:37:03;3.92;;;2.45;;
74241;SDS011;62599;49.146;10.426;2022-09-01T12:39:32;2.67;;;2.30;;
74241;SDS011;62599;49.146;10.426;2022-09-01T12:42:20;5.13;;;2.55;;
74241;SDS011;62599;49.146;10.426;2022-09-01T12:44:52;2.30;;;2.05;;
74241;SDS011;62599;49.146;10.426;2022-09-01T12:50:31;2.92;;;2.30;;
74241;SDS011;62599;49.146;10.426;2022-09-01T12:52:50;3.88;;;2.40;;
74241;SDS011;62599;49.146;10.426;2022-09-01T12:55:17;3.03;;;2.42;;
74241;SDS011;62599;49.146;10.426;2022-09-01T12:57:50;2.35;;;2.15;;
74241;SDS011;62599;49.146;10.426;2022-09-01T13:02:44;2.60;;;2.38;;
74241;SDS011;62599;49.146;10.426;2022-09-01T13:07:44;3.22;;;2.20;;
74241;SDS011;62599;49.146;10.426;2022-09-01T13:10:10;2.50;;;2.30;;
74241;SDS011;62599;49.146;10.426;2022-09-01T13:12:38;5.13;;;2.33;;
74241;SDS011;62599;49.146;10.426;2022-09-01T13:15:05;3.38;;;2.30;;
74241;SDS011;62599;49.146;10.426;2022-09-01T13:17:31;3.20;;;2.13;;
74241;SDS011;62599;49.146;10.426;2022-09-01T13:19:56;3.63;;;2.80;;
74241;SDS011;62599;49.146;10.426;2022-09-01T13:22:22;3.10;;;2.15;;
74241;SDS011;62599;49.146;10.426;2022-09-01T13:24:47;2.43;;;1.70;;
74241;SDS011;62599;49.146;10.426;2022-09-01T13:27:13;2.70;;;2.00;;
74241;SDS011;62599;49.146;10.426;2022-09-01T13:29:39;5.57;;;1.90;;
74241;SDS011;62599;49.146;10.426;2022-09-01T13:32:06;4.18;;;2.88;;
74241;SDS011;62599;49.146;10.426;2022-09-01T13:34:32;2.67;;;1.90;;
74241;SDS011;62599;49.146;10.426;2022-09-01T13:36:57;2.30;;;2.10;;
74241;SDS011;62599;49.146;10.426;2022-09-01T13:39:23;3.40;;;2.15;;
74241;SDS011;62599;49.146;10.426;2022-09-01T13:41:49;3.35;;;2.30;;
74241;SDS011;62599;49.146;10.426;2022-09-01T13:44:15;2.58;;;2.10;;
74241;SDS011;62599;49.146;10.426;2022-09-01T13:46:40;3.40;;;2.50;;
74241;SDS011;62599;49.146;10.426;2022-09-01T13:49:07;5.35;;;3.30;;
74241;SDS011;62599;49.146;10.426;2022-09-01T13:51:33;3.25;;;2.88;;
74241;SDS011;62599;49.146;10.426;2022-09-01T13:54:00;6.40;;;3.90;;
74241;SDS011;62599;49.146;10.426;2022-09-01T13:56:26;2.60;;;2.05;;
74241;SDS011;62599;49.146;10.426;2022-09-01T13:58:52;3.20;;;1.83;;
74241;SDS011;62599;49.146;10.426;2022-09-01T14:01:17;3.83;;;3.23;;
74241;SDS011;62599;49.146;10.426;2022-09-01T14:03:43;3.42;;;3.22;;
74241;SDS011;62599;49.146;10.426;2022-09-01T14:06:08;2.93;;;2.20;;
74241;SDS011;62599;49.146;10.426;2022-09-01T14:08:33;2.30;;;2.00;;
74241;SDS011;62599;49.146;10.426;2022-09-01T14:10:58;2.10;;;1.90;;
74241;SDS011;62599;49.146;10.426;2022-09-01T14:13:24;2.58;;;2.03;;
74241;SDS011;62599;49.146;10.426;2022-09-01T14:15:50;3.90;;;3.38;;
74241;SDS011;62599;49.146;10.426;2022-09-01T14:18:17;3.08;;;2.78;;
74241;SDS011;62599;49.146;10.426;2022-09-01T14:20:45;4.95;;;3.22;;
74241;SDS011;62599;49.146;10.426;2022-09-01T14:23:11;3.13;;;2.90;;
74241;SDS011;62599;49.146;10.426;2022-09-01T14:25:40;3.42;;;2.80;;
74241;SDS011;62599;49.146;10.426;2022-09-01T14:28:06;3.40;;;3.17;;
74241;SDS011;62599;49.146;10.426;2022-09-01T14:30:32;2.83;;;2.63;;
74241;SDS011;62599;49.146;10.426;2022-09-01T14:33:00;3.72;;;3.42;;
74241;SDS011;62599;49.146;10.426;2022-09-01T14:35:25;3.50;;;3.25;;
74241;SDS011;62599;49.146;10.426;2022-09-01T14:37:51;4.28;;;2.88;;
74241;SDS011;62599;49.146;10.426;2022-09-01T14:40:17;3.22;;;2.92;;
74241;SDS011;62599;49.146;10.426;2022-09-01T14:42:44;4.32;;;2.90;;
74241;SDS011;62599;49.146;10.426;2022-09-01T14:45:13;4.38;;;2.95;;
74241;SDS011;62599;49.146;10.426;2022-09-01T14:47:40;3.55;;;3.25;;
74241;SDS011;62599;49.146;10.426;2022-09-01T14:50:06;3.80;;;2.83;;
74241;SDS011;62599;49.146;10.426;2022-09-01T14:52:32;3.45;;;3.15;;
74241;SDS011;62599;49.146;10.426;2022-09-01T14:54:57;4.50;;;3.10;;
74241;SDS011;62599;49.146;10.426;2022-09-01T14:57:22;3.40;;;3.10;;
74241;SDS011;62599;49.146;10.426;2022-09-01T14:59:47;3.60;;;3.40;;
74241;SDS011;62599;49.146;10.426;2022-09-01T15:02:13;2.70;;;2.50;;
74241;SDS011;62599;49.146;10.426;2022-09-01T15:04:38;3.50;;;3.20;;
74241;SDS011;62599;49.146;10.426;2022-09-01T15:07:03;3.03;;;2.83;;
74241;SDS011;62599;49.146;10.426;2022-09-01T15:09:29;3.05;;;2.85;;
74241;SDS011;62599;49.146;10.426;2022-09-01T15:11:54;5.97;;;4.10;;
74241;SDS011;62599;49.146;10.426;2022-09-01T15:14:19;2.67;;;2.47;;
74241;SDS011;62599;49.146;10.426;2022-09-01T15:16:45;3.40;;;3.20;;
74241;SDS011;62599;49.146;10.426;2022-09-01T15:19:11;3.55;;;3.03;;
74241;SDS011;62599;49.146;10.426;2022-09-01T15:21:37;3.20;;;2.90;;
74241;SDS011;62599;49.146;10.426;2022-09-01T15:24:03;2.38;;;2.17;;
74241;SDS011;62599;49.146;10.426;2022-09-01T15:26:29;3.10;;;2.90;;
74241;SDS011;62599;49.146;10.426;2022-09-01T15:28:55;5.93;;;3.63;;
74241;SDS011;62599;49.146;10.426;2022-09-01T15:31:23;3.83;;;3.42;;
74241;SDS011;62599;49.146;10.426;2022-09-01T15:33:53;4.32;;;2.40;;
74241;SDS011;62599;49.146;10.426;2022-09-01T15:36:19;3.60;;;2.00;;
74241;SDS011;62599;49.146;10.426;2022-09-01T15:38:45;5.35;;;3.20;;
74241;SDS011;62599;49.146;10.426;2022-09-01T15:41:14;3.40;;;3.10;;
74241;SDS011;62599;49.146;10.426;2022-09-01T15:43:40;4.20;;;3.88;;